Doha International Airport

Airport
ICAO code: 
OTBD
IATA Code: 
DOH
Summary
ICAO Region: 
MID
Territory: 
Location: 
Doha, Qatar
Serving: 
Doha
Elevation: 
35 ft
Coordinates: 
Aerial View: 
25° 15' 40" N, 51° 33' 54" E
Metar
Observation
OTBD 221030Z 32012KT 280V340 9999 FEW040 18/07 Q1020 NOSIG
Station
Doha International Airport
Date/Time
2022-01-22 10:30:00
Wind direction
320°
Wind speed
12 kts
Lowest cloud amount
few clouds
Temperature
18°C
Dew point
7°C
Humidity
48%
QNH
1020 hPa
Weather condition
n/a

Doha International Airport is an airport in Doha, Qatar. It was Qatar's commercial international airport until Hamad International Airport opened on 30 April 2014. While all scheduled commercial traffic ceased, the airport site and existing runway is still used.

Climatology

Hot Desert Climate (Köppen climate classification BWh)

Runways

Designator Length Width Surface Rops
15/33 4572 46 ASP Yes/Yes
Airport map: 
Aerial View: 

SKYbrary Partners:

Safety knowledge contributed by: